createdAt,value
2024-02-02T00:07:50.608Z,184.10
2024-02-02T00:22:52.674Z,184.90
2024-02-02T00:37:51.292Z,176.80
2024-02-02T00:52:52.254Z,155.00
2024-02-02T01:07:52.129Z,180.10
2024-02-02T01:22:52.490Z,167.30
2024-02-02T01:37:52.884Z,165.00
2024-02-02T01:52:53.227Z,117.80
2024-02-02T02:07:53.509Z,192.70
2024-02-02T02:22:54.404Z,160.70
2024-02-02T02:37:54.815Z,155.50
2024-02-02T02:52:55.144Z,183.00
2024-02-02T03:07:55.486Z,169.60
2024-02-02T03:22:55.890Z,151.60
2024-02-02T03:37:56.145Z,209.10
2024-02-02T03:52:57.044Z,151.20
2024-02-02T04:07:57.963Z,143.30
2024-02-02T04:22:58.216Z,160.90
2024-02-02T04:37:58.905Z,168.40
2024-02-02T04:52:59.763Z,183.40
2024-02-02T05:08:00.664Z,173.80
2024-02-02T05:23:00.861Z,166.20
2024-02-02T05:38:01.627Z,202.90
2024-02-02T05:53:02.366Z,245.40
2024-02-02T06:08:02.841Z,224.10
2024-02-02T06:23:04.294Z,211.50
2024-02-02T06:38:03.994Z,190.40
2024-02-02T06:53:04.437Z,209.00
2024-02-02T07:08:05.002Z,204.20
2024-02-02T07:23:05.593Z,200.20
2024-02-02T07:38:06.226Z,177.40
2024-02-02T07:53:06.829Z,153.50
2024-02-02T08:08:07.575Z,142.40
2024-02-02T08:23:08.266Z,119.10
2024-02-02T08:38:08.834Z,76.60
2024-02-02T08:53:09.393Z,56.00
2024-02-02T09:08:09.969Z,40.60
2024-02-02T09:23:10.642Z,32.00
2024-02-02T09:38:11.440Z,28.30
2024-02-02T09:53:11.499Z,24.30
2024-02-02T10:08:12.132Z,22.60
2024-02-02T10:23:12.553Z,21.10
2024-02-02T10:38:12.972Z,19.30
2024-02-02T10:53:13.579Z,15.00
2024-02-02T11:08:14.115Z,17.10
2024-02-02T11:23:14.708Z,18.60
2024-02-02T11:38:15.225Z,16.40
2024-02-02T11:53:15.652Z,15.90
2024-02-02T12:08:16.696Z,12.20
2024-02-02T12:23:17.128Z,9.80
2024-02-02T12:38:18.045Z,9.30
2024-02-02T12:53:18.458Z,8.50
2024-02-02T13:08:18.961Z,8.30
2024-02-02T13:23:20.042Z,7.10
2024-02-02T13:38:20.373Z,7.30
2024-02-02T13:53:20.916Z,6.50
2024-02-02T14:08:21.446Z,6.80
2024-02-02T14:23:21.880Z,6.90
2024-02-02T14:38:22.216Z,7.80
2024-02-02T14:53:22.630Z,7.20
2024-02-02T15:08:23.049Z,6.50
2024-02-02T15:23:24.249Z,12.10
2024-02-02T15:38:24.776Z,6.10
2024-02-02T15:53:25.203Z,7.50
2024-02-02T16:08:25.719Z,7.80
2024-02-02T16:23:26.173Z,6.70
2024-02-02T16:38:26.792Z,6.60
2024-02-02T16:53:27.356Z,6.00
2024-02-02T17:08:27.859Z,6.00
2024-02-02T17:23:28.398Z,4.90
2024-02-02T17:38:29.030Z,5.30
2024-02-02T17:53:29.530Z,7.70
2024-02-02T18:08:30.369Z,6.60
2024-02-02T18:23:30.935Z,5.70
2024-02-02T18:38:31.627Z,5.60
2024-02-02T18:53:32.365Z,5.10
2024-02-02T19:08:33.077Z,5.00
2024-02-02T19:23:33.824Z,6.60
2024-02-02T19:38:34.639Z,3.70
2024-02-02T19:53:35.347Z,2.90
2024-02-02T20:08:36.058Z,4.00
2024-02-02T20:23:36.846Z,4.40
2024-02-02T20:38:37.588Z,3.10
2024-02-02T20:53:38.103Z,3.80
2024-02-02T21:08:38.891Z,3.20
2024-02-02T21:23:39.616Z,2.90
2024-02-02T21:38:40.386Z,3.70
2024-02-02T21:53:41.164Z,3.40
2024-02-02T22:08:41.960Z,4.00
2024-02-02T22:23:42.851Z,2.20
2024-02-02T22:38:43.085Z,2.50
2024-02-02T22:53:43.824Z,2.30
2024-02-02T23:08:44.583Z,2.10
2024-02-02T23:23:45.702Z,1.70
2024-02-02T23:38:46.078Z,1.90
2024-02-02T23:53:46.328Z,1.90
